sensor_id;sensor_type;location;lat;lon;timestamp;pressure;altitude;pressure_sealevel;temperature;humidity
68366;BME280;55283;51.466;5.478;2023-05-01T00:01:50;101587.28;;;22.12;43.11
68366;BME280;55283;51.466;5.478;2023-05-01T00:04:16;101578.06;;;22.12;43.02
68366;BME280;55283;51.466;5.478;2023-05-01T00:06:41;101586.47;;;22.12;43.03
68366;BME280;55283;51.466;5.478;2023-05-01T00:09:07;101576.03;;;22.12;43.06
68366;BME280;55283;51.466;5.478;2023-05-01T00:11:34;101572.81;;;22.14;43.04
68366;BME280;55283;51.466;5.478;2023-05-01T00:14:01;101565.16;;;22.14;43.19
68366;BME280;55283;51.466;5.478;2023-05-01T00:16:27;101560.44;;;22.11;42.85
68366;BME280;55283;51.466;5.478;2023-05-01T00:18:52;101564.38;;;22.14;43.03
68366;BME280;55283;51.466;5.478;2023-05-01T00:21:19;101561.22;;;22.12;42.96
68366;BME280;55283;51.466;5.478;2023-05-01T00:23:44;101563.16;;;22.15;42.90
68366;BME280;55283;51.466;5.478;2023-05-01T00:26:10;101553.16;;;22.14;42.94
68366;BME280;55283;51.466;5.478;2023-05-01T00:28:35;101544.28;;;22.15;43.01
68366;BME280;55283;51.466;5.478;2023-05-01T00:31:01;101555.09;;;22.17;42.87
68366;BME280;55283;51.466;5.478;2023-05-01T00:33:26;101542.25;;;22.16;42.82
68366;BME280;55283;51.466;5.478;2023-05-01T00:35:52;101548.31;;;22.14;42.99
68366;BME280;55283;51.466;5.478;2023-05-01T00:38:17;101544.72;;;22.14;42.90
68366;BME280;55283;51.466;5.478;2023-05-01T00:40:44;101531.19;;;22.09;43.11
68366;BME280;55283;51.466;5.478;2023-05-01T00:43:10;101534.69;;;22.13;43.01
68366;BME280;55283;51.466;5.478;2023-05-01T00:45:36;101534.69;;;22.13;42.97
68366;BME280;55283;51.466;5.478;2023-05-01T00:48:02;101529.19;;;22.09;43.15
68366;BME280;55283;51.466;5.478;2023-05-01T00:50:29;101520.84;;;22.06;42.97
68366;BME280;55283;51.466;5.478;2023-05-01T00:52:55;101523.09;;;22.11;42.98
68366;BME280;55283;51.466;5.478;2023-05-01T00:55:20;101525.13;;;22.10;43.01
68366;BME280;55283;51.466;5.478;2023-05-01T00:57:46;101516.38;;;22.08;42.98
68366;BME280;55283;51.466;5.478;2023-05-01T01:00:12;101517.50;;;22.11;43.01
68366;BME280;55283;51.466;5.478;2023-05-01T01:02:38;101514.69;;;22.11;42.92
68366;BME280;55283;51.466;5.478;2023-05-01T01:05:03;101506.72;;;22.09;43.22
68366;BME280;55283;51.466;5.478;2023-05-01T01:07:58;101503.13;;;22.09;42.92
68366;BME280;55283;51.466;5.478;2023-05-01T01:11:09;101503.13;;;22.09;43.00
68366;BME280;55283;51.466;5.478;2023-05-01T01:13:38;101497.94;;;22.07;43.03
68366;BME280;55283;51.466;5.478;2023-05-01T01:16:27;101496.38;;;22.06;42.79
68366;BME280;55283;51.466;5.478;2023-05-01T01:19:44;101493.19;;;22.04;43.15
68366;BME280;55283;51.466;5.478;2023-05-01T01:22:09;101484.06;;;22.00;43.04
68366;BME280;55283;51.466;5.478;2023-05-01T01:25:03;101491.97;;;22.05;43.01
68366;BME280;55283;51.466;5.478;2023-05-01T01:33:53;101475.19;;;22.02;43.13
68366;BME280;55283;51.466;5.478;2023-05-01T01:36:42;101462.03;;;21.99;43.12
68366;BME280;55283;51.466;5.478;2023-05-01T01:39:29;101456.88;;;21.97;43.05
68366;BME280;55283;51.466;5.478;2023-05-01T01:42:06;101437.88;;;21.85;43.03
68366;BME280;55283;51.466;5.478;2023-05-01T01:44:38;101456.78;;;22.01;43.14
68366;BME280;55283;51.466;5.478;2023-05-01T01:47:07;101443.53;;;22.01;43.13
68366;BME280;55283;51.466;5.478;2023-05-01T01:49:37;101447.59;;;22.00;43.14
68366;BME280;55283;51.466;5.478;2023-05-01T01:52:05;101443.09;;;22.03;42.95
68366;BME280;55283;51.466;5.478;2023-05-01T01:54:36;101441.88;;;22.04;42.95
68366;BME280;55283;51.466;5.478;2023-05-01T01:57:06;101433.88;;;22.02;43.06
68366;BME280;55283;51.466;5.478;2023-05-01T01:59:33;101430.66;;;22.04;43.01
68366;BME280;55283;51.466;5.478;2023-05-01T02:02:01;101428.25;;;22.02;43.04
68366;BME280;55283;51.466;5.478;2023-05-01T02:04:27;101435.47;;;22.03;43.05
68366;BME280;55283;51.466;5.478;2023-05-01T02:06:58;101434.31;;;22.01;42.97
68366;BME280;55283;51.466;5.478;2023-05-01T02:09:27;101433.88;;;22.02;43.03
68366;BME280;55283;51.466;5.478;2023-05-01T02:11:53;101435.91;;;22.02;42.99
68366;BME280;55283;51.466;5.478;2023-05-01T02:14:24;101427.84;;;22.04;43.04
68366;BME280;55283;51.466;5.478;2023-05-01T02:16:51;101419.94;;;21.99;42.86
68366;BME280;55283;51.466;5.478;2023-05-01T02:19:17;101420.09;;;22.08;42.60
68366;BME280;55283;51.466;5.478;2023-05-01T02:21:44;101421.78;;;22.05;42.67
68366;BME280;55283;51.466;5.478;2023-05-01T02:24:11;101432.16;;;22.08;42.68
68366;BME280;55283;51.466;5.478;2023-05-01T02:26:41;101418.53;;;22.07;42.52
68366;BME280;55283;51.466;5.478;2023-05-01T02:29:07;101410.91;;;22.07;42.85
68366;BME280;55283;51.466;5.478;2023-05-01T02:31:33;101410.91;;;22.07;42.78
68366;BME280;55283;51.466;5.478;2023-05-01T02:33:59;101408.44;;;22.09;42.65
68366;BME280;55283;51.466;5.478;2023-05-01T02:36:24;101403.63;;;22.10;42.69
68366;BME280;55283;51.466;5.478;2023-05-01T02:38:50;101405.19;;;22.11;42.70
68366;BME280;55283;51.466;5.478;2023-05-01T02:41:16;101406.78;;;22.12;42.71
68366;BME280;55283;51.466;5.478;2023-05-01T02:43:44;101393.28;;;22.07;42.67
68366;BME280;55283;51.466;5.478;2023-05-01T02:46:11;101401.34;;;22.05;42.63
68366;BME280;55283;51.466;5.478;2023-05-01T02:48:37;101380.47;;;22.06;42.62
68366;BME280;55283;51.466;5.478;2023-05-01T02:51:06;101383.28;;;22.06;42.78
68366;BME280;55283;51.466;5.478;2023-05-01T02:53:32;101381.34;;;22.03;42.86
68366;BME280;55283;51.466;5.478;2023-05-01T02:55:58;101382.91;;;22.04;42.76
68366;BME280;55283;51.466;5.478;2023-05-01T02:58:24;101377.31;;;22.04;43.13
68366;BME280;55283;51.466;5.478;2023-05-01T03:00:50;101367.38;;;21.99;42.82
68366;BME280;55283;51.466;5.478;2023-05-01T03:03:15;101378.09;;;22.04;42.68
68366;BME280;55283;51.466;5.478;2023-05-01T03:05:41;101377.31;;;22.04;42.86
68366;BME280;55283;51.466;5.478;2023-05-01T03:08:06;101372.47;;;22.04;42.81
68366;BME280;55283;51.466;5.478;2023-05-01T03:10:32;101364.50;;;22.03;42.80
68366;BME280;55283;51.466;5.478;2023-05-01T03:12:58;101368.09;;;22.03;42.87
68366;BME280;55283;51.466;5.478;2023-05-01T03:15:23;101366.06;;;22.04;42.79
68366;BME280;55283;51.466;5.478;2023-05-01T03:17:49;101353.44;;;21.96;42.78
68366;BME280;55283;51.466;5.478;2023-05-01T03:20:14;101354.06;;;22.03;42.94
68366;BME280;55283;51.466;5.478;2023-05-01T03:22:41;101356.09;;;22.03;42.77
68366;BME280;55283;51.466;5.478;2023-05-01T03:25:07;101350.78;;;22.05;42.82
68366;BME280;55283;51.466;5.478;2023-05-01T03:27:33;101345.63;;;22.03;42.79
68366;BME280;55283;51.466;5.478;2023-05-01T03:29:58;101342.38;;;22.05;42.73
68366;BME280;55283;51.466;5.478;2023-05-01T03:32:24;101336.50;;;21.99;42.70
68366;BME280;55283;51.466;5.478;2023-05-01T03:34:49;101341.59;;;22.04;42.60
68366;BME280;55283;51.466;5.478;2023-05-01T03:37:15;101347.22;;;22.04;42.73
68366;BME280;55283;51.466;5.478;2023-05-01T03:39:40;101340.03;;;22.03;42.66
68366;BME280;55283;51.466;5.478;2023-05-01T03:42:06;101339.25;;;22.03;43.06
68366;BME280;55283;51.466;5.478;2023-05-01T03:44:31;101335.97;;;22.04;42.65
68366;BME280;55283;51.466;5.478;2023-05-01T03:46:57;101340.81;;;22.04;42.86
68366;BME280;55283;51.466;5.478;2023-05-01T03:49:22;101336.84;;;22.01;42.70
68366;BME280;55283;51.466;5.478;2023-05-01T03:51:48;101333.63;;;22.03;42.74
68366;BME280;55283;51.466;5.478;2023-05-01T03:54:13;101337.22;;;22.03;42.75
68366;BME280;55283;51.466;5.478;2023-05-01T03:56:39;101337.22;;;22.03;42.75
68366;BME280;55283;51.466;5.478;2023-05-01T03:59:05;101333.16;;;22.04;42.69
68366;BME280;55283;51.466;5.478;2023-05-01T04:01:30;101323.59;;;22.02;42.68
68366;BME280;55283;51.466;5.478;2023-05-01T04:03:58;101320.38;;;22.03;42.77
68366;BME280;55283;51.466;5.478;2023-05-01T04:06:23;101323.19;;;22.03;42.66
68366;BME280;55283;51.466;5.478;2023-05-01T04:08:49;101329.22;;;22.02;42.83
68366;BME280;55283;51.466;5.478;2023-05-01T04:11:14;101326.88;;;22.00;42.81
68366;BME280;55283;51.466;5.478;2023-05-01T04:13:40;101323.19;;;22.03;42.80
68366;BME280;55283;51.466;5.478;2023-05-01T04:16:06;101317.56;;;22.03;42.50
68366;BME280;55283;51.466;5.478;2023-05-01T04:18:31;101319.22;;;22.01;42.76
68366;BME280;55283;51.466;5.478;2023-05-01T04:20:57;101312.84;;;22.00;42.84
68366;BME280;55283;51.466;5.478;2023-05-01T04:23:22;101320.38;;;22.03;42.50
68366;BME280;55283;51.466;5.478;2023-05-01T04:25:48;101319.59;;;22.03;42.81
68366;BME280;55283;51.466;5.478;2023-05-01T04:28:13;101320.00;;;22.01;42.67
68366;BME280;55283;51.466;5.478;2023-05-01T04:30:38;101320.38;;;22.03;42.61
68366;BME280;55283;51.466;5.478;2023-05-01T04:33:04;101327.66;;;22.01;42.69
68366;BME280;55283;51.466;5.478;2023-05-01T04:35:39;101336.44;;;22.03;42.57
68366;BME280;55283;51.466;5.478;2023-05-01T04:38:05;101338.00;;;22.04;42.56
68366;BME280;55283;51.466;5.478;2023-05-01T04:40:30;101325.19;;;22.03;42.62
68366;BME280;55283;51.466;5.478;2023-05-01T04:42:56;101334.06;;;22.01;42.73
68366;BME280;55283;51.466;5.478;2023-05-01T04:45:21;101332.47;;;22.00;42.59
68366;BME280;55283;51.466;5.478;2023-05-01T04:47:47;101331.69;;;22.00;42.71
68366;BME280;55283;51.466;5.478;2023-05-01T04:50:13;101316.59;;;21.93;42.74
68366;BME280;55283;51.466;5.478;2023-05-01T04:52:38;101326.00;;;22.03;42.67
68366;BME280;55283;51.466;5.478;2023-05-01T04:55:04;101328.09;;;21.99;42.83
68366;BME280;55283;51.466;5.478;2023-05-01T04:57:30;101333.28;;;22.01;42.67
68366;BME280;55283;51.466;5.478;2023-05-01T04:59:55;101328.09;;;21.99;42.63
68366;BME280;55283;51.466;5.478;2023-05-01T05:02:21;101326.09;;;22.00;42.70
68366;BME280;55283;51.466;5.478;2023-05-01T05:04:46;101324.16;;;21.97;42.69
68366;BME280;55283;51.466;5.478;2023-05-01T05:07:11;101318.53;;;21.97;42.84
68366;BME280;55283;51.466;5.478;2023-05-01T05:09:37;101324.94;;;21.97;42.84
68366;BME280;55283;51.466;5.478;2023-05-01T05:12:03;101326.09;;;22.00;42.67
68366;BME280;55283;51.466;5.478;2023-05-01T05:14:29;101324.38;;;22.02;42.67
68366;BME280;55283;51.466;5.478;2023-05-01T05:16:55;101323.72;;;21.98;42.88
68366;BME280;55283;51.466;5.478;2023-05-01T05:19:20;101331.25;;;22.01;42.65
68366;BME280;55283;51.466;5.478;2023-05-01T05:21:46;101320.13;;;21.98;42.59
68366;BME280;55283;51.466;5.478;2023-05-01T05:24:12;101327.19;;;22.02;42.58
68366;BME280;55283;51.466;5.478;2023-05-01T05:26:37;101318.53;;;21.97;42.78
68366;BME280;55283;51.466;5.478;2023-05-01T05:29:03;101314.50;;;21.98;42.85
68366;BME280;55283;51.466;5.478;2023-05-01T05:31:28;101315.03;;;21.92;42.79
68366;BME280;55283;51.466;5.478;2023-05-01T05:33:54;101319.75;;;21.96;42.52
68366;BME280;55283;51.466;5.478;2023-05-01T05:36:19;101320.00;;;22.01;42.96
68366;BME280;55283;51.466;5.478;2023-05-01T05:38:45;101313.38;;;21.95;42.74
68366;BME280;55283;51.466;5.478;2023-05-01T05:41:10;101314.94;;;21.96;42.71
68366;BME280;55283;51.466;5.478;2023-05-01T05:43:36;101320.13;;;21.98;43.03
68366;BME280;55283;51.466;5.478;2023-05-01T05:46:01;101316.53;;;21.97;43.10
68366;BME280;55283;51.466;5.478;2023-05-01T05:48:27;101321.78;;;21.95;43.26
68366;BME280;55283;51.466;5.478;2023-05-01T05:50:52;101322.22;;;21.93;43.17
68366;BME280;55283;51.466;5.478;2023-05-01T05:53:21;101327.28;;;21.99;43.47
68366;BME280;55283;51.466;5.478;2023-05-01T05:55:46;101318.88;;;21.99;43.42
68366;BME280;55283;51.466;5.478;2023-05-01T05:58:12;101320.28;;;22.07;44.47
68366;BME280;55283;51.466;5.478;2023-05-01T06:00:48;101314.03;;;22.15;43.65
68366;BME280;55283;51.466;5.478;2023-05-01T06:03:14;101303.31;;;22.10;43.30
68366;BME280;55283;51.466;5.478;2023-05-01T06:05:41;101302.75;;;22.03;43.40
68366;BME280;55283;51.466;5.478;2023-05-01T06:08:07;101312.63;;;22.07;44.13
68366;BME280;55283;51.466;5.478;2023-05-01T06:10:34;101315.00;;;22.09;44.52
68366;BME280;55283;51.466;5.478;2023-05-01T06:13:00;101315.25;;;22.14;44.25
68366;BME280;55283;51.466;5.478;2023-05-01T06:15:26;101318.84;;;22.15;44.92
68366;BME280;55283;51.466;5.478;2023-05-01T06:17:51;101319.91;;;22.21;45.75
68366;BME280;55283;51.466;5.478;2023-05-01T06:20:17;101322.56;;;22.12;44.58
68366;BME280;55283;51.466;5.478;2023-05-01T06:22:42;101319.34;;;21.97;39.59
68366;BME280;55283;51.466;5.478;2023-05-01T06:25:08;101319.22;;;21.84;37.69
68366;BME280;55283;51.466;5.478;2023-05-01T06:27:33;101308.00;;;21.68;36.92
68366;BME280;55283;51.466;5.478;2023-05-01T06:29:59;101303.91;;;21.56;37.87
68366;BME280;55283;51.466;5.478;2023-05-01T06:32:24;101307.13;;;21.55;37.30
68366;BME280;55283;51.466;5.478;2023-05-01T06:34:50;101313.72;;;21.48;36.54
68366;BME280;55283;51.466;5.478;2023-05-01T06:37:15;101298.91;;;21.47;35.83
68366;BME280;55283;51.466;5.478;2023-05-01T06:39:40;101306.25;;;21.41;35.25
68366;BME280;55283;51.466;5.478;2023-05-01T06:42:06;101306.69;;;21.40;36.25
68366;BME280;55283;51.466;5.478;2023-05-01T06:44:32;101309.91;;;21.38;35.56
68366;BME280;55283;51.466;5.478;2023-05-01T06:46:57;101315.28;;;21.33;35.80
68366;BME280;55283;51.466;5.478;2023-05-01T06:49:25;101307.75;;;21.30;35.97
68366;BME280;55283;51.466;5.478;2023-05-01T06:51:51;101304.56;;;21.28;36.21
68366;BME280;55283;51.466;5.478;2023-05-01T06:54:17;101299.84;;;21.24;36.53
68366;BME280;55283;51.466;5.478;2023-05-01T06:56:42;101307.78;;;21.26;35.75
68366;BME280;55283;51.466;5.478;2023-05-01T06:59:08;101307.47;;;21.24;35.02
68366;BME280;55283;51.466;5.478;2023-05-01T07:01:33;101297.72;;;21.29;35.02
68366;BME280;55283;51.466;5.478;2023-05-01T07:03:59;101309.91;;;21.22;34.88
68366;BME280;55283;51.466;5.478;2023-05-01T07:06:24;101290.94;;;21.10;35.15
68366;BME280;55283;51.466;5.478;2023-05-01T07:08:50;101298.41;;;21.16;34.11
68366;BME280;55283;51.466;5.478;2023-05-01T07:11:16;101310.06;;;21.15;35.01
68366;BME280;55283;51.466;5.478;2023-05-01T07:13:41;101300.81;;;21.14;35.04
68366;BME280;55283;51.466;5.478;2023-05-01T07:16:07;101307.31;;;21.11;34.81
68366;BME280;55283;51.466;5.478;2023-05-01T07:18:32;101292.09;;;21.12;35.73
68366;BME280;55283;51.466;5.478;2023-05-01T07:20:58;101301.28;;;21.13;34.83
68366;BME280;55283;51.466;5.478;2023-05-01T07:23:24;101306.53;;;21.11;34.89
68366;BME280;55283;51.466;5.478;2023-05-01T07:25:51;101294.63;;;21.07;35.27
68366;BME280;55283;51.466;5.478;2023-05-01T07:28:16;101303.81;;;21.07;34.72
68366;BME280;55283;51.466;5.478;2023-05-01T07:30:43;101296.19;;;21.08;35.64
68366;BME280;55283;51.466;5.478;2023-05-01T07:33:09;101294.94;;;21.09;35.49
68366;BME280;55283;51.466;5.478;2023-05-01T07:35:34;101305.00;;;21.06;35.60
68366;BME280;55283;51.466;5.478;2023-05-01T07:38:00;101303.72;;;21.11;35.81
68366;BME280;55283;51.466;5.478;2023-05-01T07:40:25;101304.50;;;21.11;36.83
68366;BME280;55283;51.466;5.478;2023-05-01T07:42:50;101306.88;;;21.13;37.05
68366;BME280;55283;51.466;5.478;2023-05-01T07:45:16;101300.81;;;21.14;36.50
68366;BME280;55283;51.466;5.478;2023-05-01T07:47:41;101307.31;;;21.11;37.58
68366;BME280;55283;51.466;5.478;2023-05-01T07:50:11;101304.09;;;21.13;39.22
68366;BME280;55283;51.466;5.478;2023-05-01T07:52:37;101316.03;;;21.17;38.38
68366;BME280;55283;51.466;5.478;2023-05-01T07:55:03;101298.34;;;21.20;38.19
68366;BME280;55283;51.466;5.478;2023-05-01T07:57:29;101295.09;;;21.21;37.96
68366;BME280;55283;51.466;5.478;2023-05-01T07:59:57;101311.16;;;21.37;37.32
68366;BME280;55283;51.466;5.478;2023-05-01T08:02:23;101294.94;;;21.45;37.50
68366;BME280;55283;51.466;5.478;2023-05-01T08:04:48;101299.84;;;21.57;37.78
68366;BME280;55283;51.466;5.478;2023-05-01T08:07:14;101291.69;;;21.63;38.06
68366;BME280;55283;51.466;5.478;2023-05-01T08:09:39;101296.06;;;21.64;38.09
68366;BME280;55283;51.466;5.478;2023-05-01T08:12:05;101298.34;;;21.69;38.02
68366;BME280;55283;51.466;5.478;2023-05-01T08:14:30;101294.31;;;21.70;37.94
68366;BME280;55283;51.466;5.478;2023-05-01T08:16:56;101298.63;;;21.75;37.81
68366;BME280;55283;51.466;5.478;2023-05-01T08:19:22;101297.31;;;21.79;38.12
68366;BME280;55283;51.466;5.478;2023-05-01T08:21:47;101291.34;;;21.77;38.39
68366;BME280;55283;51.466;5.478;2023-05-01T08:24:13;101289.78;;;21.76;38.39
68366;BME280;55283;51.466;5.478;2023-05-01T08:26:38;101286.97;;;21.76;38.95
68366;BME280;55283;51.466;5.478;2023-05-01T08:29:04;101288.34;;;21.84;38.65
68366;BME280;55283;51.466;5.478;2023-05-01T08:31:29;101295.38;;;21.92;38.87
68366;BME280;55283;51.466;5.478;2023-05-01T08:33:54;101291.78;;;21.92;38.81
68366;BME280;55283;51.466;5.478;2023-05-01T08:36:22;101297.41;;;21.92;39.02
68366;BME280;55283;51.466;5.478;2023-05-01T08:38:47;101283.44;;;21.88;39.09
68366;BME280;55283;51.466;5.478;2023-05-01T08:41:19;101286.84;;;21.96;39.08
68366;BME280;55283;51.466;5.478;2023-05-01T08:43:45;101290.91;;;21.95;39.06
68366;BME280;55283;51.466;5.478;2023-05-01T08:46:12;101290.91;;;21.95;39.40
68366;BME280;55283;51.466;5.478;2023-05-01T08:48:40;101288.47;;;21.97;39.28
68366;BME280;55283;51.466;5.478;2023-05-01T08:51:09;101276.88;;;21.95;39.22
68366;BME280;55283;51.466;5.478;2023-05-01T08:53:36;101291.59;;;21.99;39.74
68366;BME280;55283;51.466;5.478;2023-05-01T08:56:05;101297.66;;;21.98;39.19
68366;BME280;55283;51.466;5.478;2023-05-01T08:58:32;101291.44;;;21.90;39.10
68366;BME280;55283;51.466;5.478;2023-05-01T09:01:00;101294.13;;;21.93;39.79
68366;BME280;55283;51.466;5.478;2023-05-01T09:03:27;101296.16;;;21.93;40.11
68366;BME280;55283;51.466;5.478;2023-05-01T09:05:56;101290.13;;;21.95;39.92
68366;BME280;55283;51.466;5.478;2023-05-01T09:08:22;101288.25;;;22.04;40.14
68366;BME280;55283;51.466;5.478;2023-05-01T09:10:48;101294.13;;;22.10;40.13
68366;BME280;55283;51.466;5.478;2023-05-01T09:13:14;101293.69;;;22.11;40.16
68366;BME280;55283;51.466;5.478;2023-05-01T09:15:39;101299.56;;;22.17;39.92
68366;BME280;55283;51.466;5.478;2023-05-01T09:18:07;101295.41;;;22.22;40.16
68366;BME280;55283;51.466;5.478;2023-05-01T09:20:33;101291.47;;;22.19;40.17
68366;BME280;55283;51.466;5.478;2023-05-01T09:23:01;101296.19;;;22.22;40.09
68366;BME280;55283;51.466;5.478;2023-05-01T09:25:27;101290.25;;;22.20;40.45
68366;BME280;55283;51.466;5.478;2023-05-01T09:27:53;101292.50;;;22.25;40.50
68366;BME280;55283;51.466;5.478;2023-05-01T09:33:09;101285.91;;;22.32;40.51
68366;BME280;55283;51.466;5.478;2023-05-01T09:35:55;101284.66;;;22.33;40.36
68366;BME280;55283;51.466;5.478;2023-05-01T09:38:23;101291.06;;;22.33;40.55
68366;BME280;55283;51.466;5.478;2023-05-01T09:40:49;101285.09;;;22.31;40.78
68366;BME280;55283;51.466;5.478;2023-05-01T09:43:26;101287.47;;;22.33;40.33
68366;BME280;55283;51.466;5.478;2023-05-01T09:46:18;101281.84;;;22.33;40.64
68366;BME280;55283;51.466;5.478;2023-05-01T09:49:00;101281.84;;;22.33;40.69
68366;BME280;55283;51.466;5.478;2023-05-01T09:51:31;101291.66;;;22.41;40.49
68366;BME280;55283;51.466;5.478;2023-05-01T09:54:04;101284.69;;;22.46;40.66
68366;BME280;55283;51.466;5.478;2023-05-01T09:56:32;101288.56;;;22.52;40.40
68366;BME280;55283;51.466;5.478;2023-05-01T09:59:13;101294.38;;;22.57;40.39
68366;BME280;55283;51.466;5.478;2023-05-01T10:01:44;101285.97;;;22.57;40.34
68366;BME280;55283;51.466;5.478;2023-05-01T10:04:10;101300.72;;;22.62;40.29
68366;BME280;55283;51.466;5.478;2023-05-01T10:06:38;101292.41;;;22.58;40.26
68366;BME280;55283;51.466;5.478;2023-05-01T10:09:04;101290.47;;;22.55;40.47
68366;BME280;55283;51.466;5.478;2023-05-01T10:11:46;101277.31;;;22.52;40.59
68366;BME280;55283;51.466;5.478;2023-05-01T10:14:12;101297.19;;;22.57;41.11
68366;BME280;55283;51.466;5.478;2023-05-01T10:16:39;101293.00;;;22.66;41.96
68366;BME280;55283;51.466;5.478;2023-05-01T10:19:05;101295.00;;;22.65;42.25
68366;BME280;55283;51.466;5.478;2023-05-01T10:21:31;101291.66;;;22.70;41.88
68366;BME280;55283;51.466;5.478;2023-05-01T10:24:00;101298.84;;;22.71;41.86
68366;BME280;55283;51.466;5.478;2023-05-01T10:26:32;101292.88;;;22.69;41.52
68366;BME280;55283;51.466;5.478;2023-05-01T10:28:59;101298.72;;;22.75;41.33
68366;BME280;55283;51.466;5.478;2023-05-01T10:31:25;101300.22;;;22.79;41.40
68366;BME280;55283;51.466;5.478;2023-05-01T10:33:53;101306.63;;;22.80;41.24
68366;BME280;55283;51.466;5.478;2023-05-01T10:36:35;101295.84;;;22.78;41.36
68366;BME280;55283;51.466;5.478;2023-05-01T10:39:02;101305.94;;;22.76;41.34
68366;BME280;55283;51.466;5.478;2023-05-01T10:41:59;101308.88;;;22.72;41.87
68366;BME280;55283;51.466;5.478;2023-05-01T10:44:26;101300.09;;;22.70;41.36
68366;BME280;55283;51.466;5.478;2023-05-01T10:46:52;101302.91;;;22.70;41.60
68366;BME280;55283;51.466;5.478;2023-05-01T10:49:18;101305.81;;;22.67;41.64
68366;BME280;55283;51.466;5.478;2023-05-01T10:54:23;101304.22;;;22.66;41.55
68366;BME280;55283;51.466;5.478;2023-05-01T10:56:49;101288.34;;;22.59;41.57
68366;BME280;55283;51.466;5.478;2023-05-01T10:59:14;101306.72;;;22.64;41.32
68366;BME280;55283;51.466;5.478;2023-05-01T11:01:41;101296.78;;;22.59;41.42
68366;BME280;55283;51.466;5.478;2023-05-01T11:09:41;101301.16;;;22.60;40.43
68366;BME280;55283;51.466;5.478;2023-05-01T11:12:08;101306.75;;;22.60;40.46
68366;BME280;55283;51.466;5.478;2023-05-01T11:20:09;101318.41;;;22.46;40.38
68366;BME280;55283;51.466;5.478;2023-05-01T11:22:36;101300.97;;;22.38;40.64
68366;BME280;55283;51.466;5.478;2023-05-01T11:25:04;101317.63;;;22.45;39.80
68366;BME280;55283;51.466;5.478;2023-05-01T11:27:55;101309.72;;;22.40;39.52
68366;BME280;55283;51.466;5.478;2023-05-01T11:30:21;101314.69;;;22.36;39.37
68366;BME280;55283;51.466;5.478;2023-05-01T11:32:48;101316.50;;;22.43;38.98
68366;BME280;55283;51.466;5.478;2023-05-01T11:35:21;101316.84;;;22.45;37.86
68366;BME280;55283;51.466;5.478;2023-05-01T11:37:48;101308.28;;;22.35;39.13
68366;BME280;55283;51.466;5.478;2023-05-01T11:40:22;101313.00;;;22.38;38.79
68366;BME280;55283;51.466;5.478;2023-05-01T11:42:48;101312.66;;;22.36;39.05
68366;BME280;55283;51.466;5.478;2023-05-01T11:45:14;101321.97;;;22.33;38.68
68366;BME280;55283;51.466;5.478;2023-05-01T11:47:40;101311.75;;;22.40;38.07
68366;BME280;55283;51.466;5.478;2023-05-01T11:50:07;101313.44;;;22.37;38.87
68366;BME280;55283;51.466;5.478;2023-05-01T11:52:49;101317.84;;;22.38;37.57
68366;BME280;55283;51.466;5.478;2023-05-01T11:55:16;101300.38;;;22.30;38.07
68366;BME280;55283;51.466;5.478;2023-05-01T11:57:52;101310.06;;;22.29;38.18
68366;BME280;55283;51.466;5.478;2023-05-01T12:00:32;101313.53;;;22.33;37.92
68366;BME280;55283;51.466;5.478;2023-05-01T12:03:12;101309.94;;;22.33;37.60
68366;BME280;55283;51.466;5.478;2023-05-01T12:05:39;101309.72;;;22.40;37.82
68366;BME280;55283;51.466;5.478;2023-05-01T12:08:15;101312.00;;;22.45;37.14
68366;BME280;55283;51.466;5.478;2023-05-01T12:10:54;101311.22;;;22.45;37.47
68366;BME280;55283;51.466;5.478;2023-05-01T12:13:21;101310.09;;;22.42;37.43
68366;BME280;55283;51.466;5.478;2023-05-01T12:15:49;101314.38;;;22.47;37.09
68366;BME280;55283;51.466;5.478;2023-05-01T12:18:16;101310.69;;;22.50;36.94
68366;BME280;55283;51.466;5.478;2023-05-01T12:20:53;101310.69;;;22.50;37.15
68366;BME280;55283;51.466;5.478;2023-05-01T12:23:29;101299.63;;;22.43;36.97
68366;BME280;55283;51.466;5.478;2023-05-01T12:25:55;101304.81;;;22.44;36.72
68366;BME280;55283;51.466;5.478;2023-05-01T12:28:21;101314.81;;;22.45;36.76
68366;BME280;55283;51.466;5.478;2023-05-01T12:30:46;101303.34;;;22.40;36.58
68366;BME280;55283;51.466;5.478;2023-05-01T12:33:14;101306.50;;;22.42;36.74
68366;BME280;55283;51.466;5.478;2023-05-01T12:35:41;101300.09;;;22.41;36.48
68366;BME280;55283;51.466;5.478;2023-05-01T12:38:14;101297.41;;;22.50;36.32
68366;BME280;55283;51.466;5.478;2023-05-01T12:40:53;101313.63;;;22.59;35.87
68366;BME280;55283;51.466;5.478;2023-05-01T12:43:21;101305.97;;;22.59;36.14
68366;BME280;55283;51.466;5.478;2023-05-01T12:45:51;101310.03;;;22.58;36.22
68366;BME280;55283;51.466;5.478;2023-05-01T12:48:17;101303.81;;;22.51;36.35
68366;BME280;55283;51.466;5.478;2023-05-01T12:50:43;101309.78;;;22.53;36.38
68366;BME280;55283;51.466;5.478;2023-05-01T12:53:09;101312.59;;;22.53;36.08
68366;BME280;55283;51.466;5.478;2023-05-01T12:55:48;101303.28;;;22.56;36.28
68366;BME280;55283;51.466;5.478;2023-05-01T12:58:15;101308.78;;;22.59;36.02
68366;BME280;55283;51.466;5.478;2023-05-01T13:01:01;101314.34;;;22.63;35.84
68366;BME280;55283;51.466;5.478;2023-05-01T13:03:28;101316.78;;;22.61;35.88
68366;BME280;55283;51.466;5.478;2023-05-01T13:05:58;101310.56;;;22.53;35.84
68366;BME280;55283;51.466;5.478;2023-05-01T13:08:32;101316.97;;;22.54;35.60
68366;BME280;55283;51.466;5.478;2023-05-01T13:11:00;101310.56;;;22.53;35.65
68366;BME280;55283;51.466;5.478;2023-05-01T13:13:29;101315.75;;;22.55;35.52
68366;BME280;55283;51.466;5.478;2023-05-01T13:18:41;101313.50;;;22.50;35.28
68366;BME280;55283;51.466;5.478;2023-05-01T13:21:09;101320.25;;;22.52;35.45